Time;durP1;ratioP1;P1;durP2;ratioP2;P2;SDS_P1;SDS_P2;PMS_P1;PMS_P2;Temp;Humidity;BMP_temperature;BMP_pressure;BME280_temperature;BME280_humidity;BME280_pressure;Samples;Min_cycle;Max_cycle;Signal;HPM_P1;HPM_P2
2022/04/22 00:01:12;;;;;;;4.95;3.95;;;10.10;52.50;;;;;;5113534;28;20076;-59
2022/04/22 00:03:38;;;;;;;9.75;3.92;;;10.00;52.40;;;;;;5121448;28;20030;-58
2022/04/22 00:06:05;;;;;;;4.50;3.78;;;10.00;52.30;;;;;;5120488;28;20032;-59
2022/04/22 00:08:31;;;;;;;6.70;3.95;;;9.90;52.60;;;;;;5123129;28;20051;-59
2022/04/22 00:13:43;;;;;;;5.20;3.92;;;9.90;52.70;;;;;;5126306;27;20064;-58
2022/04/22 00:16:09;;;;;;;7.05;3.90;;;9.80;52.40;;;;;;5121428;27;20085;-59
2022/04/22 00:18:35;;;;;;;4.45;3.85;;;9.70;52.60;;;;;;5120728;27;20040;-59
2022/04/22 00:21:01;;;;;;;7.10;3.70;;;9.70;52.60;;;;;;5117283;27;20035;-58
2022/04/22 00:23:27;;;;;;;7.38;3.97;;;9.70;52.70;;;;;;5124054;27;20034;-59
2022/04/22 00:25:54;;;;;;;5.80;4.10;;;9.60;52.90;;;;;;5124764;27;20106;-58
2022/04/22 00:28:20;;;;;;;6.15;3.83;;;9.60;52.80;;;;;;5125612;27;20020;-59
2022/04/22 00:30:47;;;;;;;7.03;4.05;;;9.60;53.10;;;;;;5121170;27;20027;-58
2022/04/22 00:33:13;;;;;;;5.38;3.95;;;9.50;53.10;;;;;;5124631;27;20031;-59
2022/04/22 00:35:39;;;;;;;9.40;4.43;;;9.40;53.20;;;;;;5117037;27;20020;-57
2022/04/22 00:38:05;;;;;;;7.60;5.15;;;9.40;53.30;;;;;;5128089;27;20044;-57
2022/04/22 00:40:31;;;;;;;6.25;4.72;;;9.40;53.40;;;;;;5121846;27;20015;-57
2022/04/22 00:42:56;;;;;;;5.50;4.53;;;9.30;53.50;;;;;;5123921;27;20031;-59
2022/04/22 00:45:22;;;;;;;6.43;4.82;;;9.30;54.30;;;;;;5125258;27;20038;-58
2022/04/22 00:47:48;;;;;;;7.22;4.55;;;9.30;53.90;;;;;;5127809;27;20027;-58
2022/04/22 00:50:14;;;;;;;8.18;4.78;;;9.30;54.70;;;;;;5124615;27;20687;-57
2022/04/22 00:52:39;;;;;;;7.43;4.70;;;9.20;54.10;;;;;;5120168;27;20016;-58
2022/04/22 00:55:06;;;;;;;6.40;4.63;;;9.20;54.10;;;;;;5123583;27;20051;-59
2022/04/22 00:57:32;;;;;;;6.28;4.63;;;9.20;54.30;;;;;;5123957;27;20042;-57
2022/04/22 00:59:58;;;;;;;8.80;4.57;;;9.20;54.40;;;;;;5112818;28;20060;-59
2022/04/22 01:02:24;;;;;;;6.80;4.63;;;9.10;54.40;;;;;;5121367;27;21179;-58
2022/04/22 01:10:19;;;;;;;12.75;4.35;;;9.10;54.60;;;;;;5123096;27;20395;-59
2022/04/22 01:12:45;;;;;;;7.38;5.05;;;9.00;53.70;;;;;;5111984;27;20070;-58
2022/04/22 01:15:10;;;;;;;8.68;4.68;;;9.00;54.20;;;;;;5128674;27;20023;-57
2022/04/22 01:17:37;;;;;;;5.40;4.28;;;8.90;54.30;;;;;;5125552;27;20582;-57
2022/04/22 01:20:04;;;;;;;7.65;5.15;;;8.90;54.40;;;;;;5119483;27;20028;-59
2022/04/22 01:22:30;;;;;;;8.05;4.72;;;8.90;54.70;;;;;;5126263;27;20495;-59
2022/04/22 01:25:01;;;;;;;7.65;5.38;;;8.90;54.80;;;;;;5056128;27;20023;-59
2022/04/22 01:27:29;;;;;;;10.65;5.07;;;8.90;55.20;;;;;;5119762;27;20024;-58
2022/04/22 01:30:01;;;;;;;10.88;5.50;;;8.90;55.10;;;;;;5125666;27;20043;-58
2022/04/22 01:32:27;;;;;;;10.32;6.13;;;8.80;55.20;;;;;;5120808;27;20134;-57
2022/04/22 01:34:53;;;;;;;7.75;5.55;;;8.80;55.30;;;;;;5124496;27;20035;-58
2022/04/22 01:37:19;;;;;;;8.85;5.93;;;8.80;55.60;;;;;;5127690;27;20461;-58
2022/04/22 01:39:45;;;;;;;9.85;6.25;;;8.80;55.80;;;;;;5121481;27;20019;-57
2022/04/22 01:42:11;;;;;;;8.93;6.15;;;8.80;56.00;;;;;;5120442;27;20053;-57
2022/04/22 01:44:37;;;;;;;10.27;6.90;;;8.80;56.10;;;;;;5119645;27;20020;-59
2022/04/22 01:47:03;;;;;;;9.70;6.57;;;8.80;56.50;;;;;;5119089;27;20032;-57
2022/04/22 01:49:29;;;;;;;9.02;6.10;;;8.80;56.30;;;;;;5118235;27;20040;-57
2022/04/22 01:51:55;;;;;;;10.18;7.40;;;8.80;56.00;;;;;;5118756;27;20036;-59
2022/04/22 01:54:20;;;;;;;10.90;6.97;;;8.80;56.50;;;;;;5122837;27;20028;-57
2022/04/22 01:56:46;;;;;;;11.25;7.43;;;8.80;56.90;;;;;;5121136;27;20044;-59
2022/04/22 01:59:12;;;;;;;15.38;7.55;;;8.80;56.30;;;;;;5120751;27;20024;-57
2022/04/22 02:01:38;;;;;;;12.30;7.50;;;8.80;56.80;;;;;;5123010;27;20026;-59
2022/04/22 02:04:03;;;;;;;9.85;6.95;;;8.80;56.70;;;;;;5128232;27;20084;-59
2022/04/22 02:06:29;;;;;;;13.05;7.30;;;8.80;56.80;;;;;;5117793;27;20027;-57
2022/04/22 02:08:55;;;;;;;14.18;7.70;;;8.80;57.00;;;;;;5123296;27;20102;-57
2022/04/22 02:11:21;;;;;;;10.65;7.28;;;8.80;57.20;;;;;;5122718;27;20032;-57
2022/04/22 02:13:47;;;;;;;11.38;7.68;;;8.80;57.30;;;;;;5120361;27;20031;-59
2022/04/22 02:16:12;;;;;;;11.63;7.95;;;8.80;57.30;;;;;;5117689;27;20027;-57
2022/04/22 02:18:41;;;;;;;10.98;7.93;;;8.80;57.10;;;;;;5119569;27;20020;-58
2022/04/22 02:21:09;;;;;;;14.30;8.05;;;8.70;57.00;;;;;;5120855;27;20034;-59
2022/04/22 02:23:35;;;;;;;12.50;8.27;;;8.70;56.90;;;;;;5116638;27;20049;-57
2022/04/22 02:26:02;;;;;;;12.18;7.57;;;8.70;57.40;;;;;;5119928;27;20027;-59
2022/04/22 02:28:34;;;;;;;11.90;7.93;;;8.70;57.40;;;;;;5118961;27;20024;-59
2022/04/22 02:31:07;;;;;;;13.82;8.18;;;8.70;57.40;;;;;;5114839;27;20036;-57
2022/04/22 02:33:34;;;;;;;8.13;5.55;;;8.80;57.80;;;;;;5122748;27;20087;-59
2022/04/22 02:36:01;;;;;;;12.15;7.90;;;8.70;57.10;;;;;;5118397;27;20296;-57
2022/04/22 02:38:28;;;;;;;13.15;8.05;;;8.70;57.00;;;;;;5115733;27;20027;-59
2022/04/22 02:46:23;;;;;;;10.25;7.05;;;8.70;57.40;;;;;;5119963;27;19936;-59
2022/04/22 02:48:49;;;;;;;13.25;7.32;;;8.70;56.20;;;;;;5116271;27;20063;-58
2022/04/22 02:51:15;;;;;;;15.05;7.63;;;8.60;56.50;;;;;;5118187;27;20054;-59
2022/04/22 02:53:40;;;;;;;12.95;8.25;;;8.60;56.60;;;;;;5122977;27;20027;-59
2022/04/22 02:56:07;;;;;;;13.60;9.00;;;8.50;56.70;;;;;;5124967;27;20019;-58
2022/04/22 02:58:34;;;;;;;13.85;8.73;;;8.50;56.90;;;;;;5126989;28;20076;-58
2022/04/22 03:00:59;;;;;;;11.02;8.45;;;8.50;57.50;;;;;;5123234;28;20028;-58
2022/04/22 03:03:25;;;;;;;11.00;7.70;;;8.40;56.80;;;;;;5121595;28;20606;-58
2022/04/22 03:05:51;;;;;;;13.13;9.23;;;8.40;56.90;;;;;;5120118;28;20020;-57
2022/04/22 03:08:17;;;;;;;12.30;8.88;;;8.30;57.20;;;;;;5116035;28;20024;-57
2022/04/22 03:10:43;;;;;;;12.57;8.35;;;8.30;57.80;;;;;;5119414;28;20035;-57
2022/04/22 03:13:08;;;;;;;14.43;9.02;;;8.20;57.20;;;;;;5128050;28;20024;-58
2022/04/22 03:15:36;;;;;;;16.20;9.82;;;8.20;57.00;;;;;;5122700;28;20027;-57
2022/04/22 03:18:02;;;;;;;12.90;8.93;;;8.20;57.50;;;;;;5122618;28;20027;-58
2022/04/22 03:20:28;;;;;;;12.80;8.75;;;8.10;57.30;;;;;;5120436;27;20051;-59
2022/04/22 03:22:53;;;;;;;14.63;9.25;;;8.10;57.30;;;;;;5122641;28;20037;-57
2022/04/22 03:25:20;;;;;;;13.20;9.32;;;8.10;57.40;;;;;;5120336;28;20040;-58
2022/04/22 03:27:46;;;;;;;13.02;8.77;;;8.00;57.60;;;;;;5120388;28;20015;-58
2022/04/22 03:30:12;;;;;;;14.45;8.68;;;8.00;57.60;;;;;;5121092;28;20046;-59
2022/04/22 03:32:38;;;;;;;20.42;9.48;;;7.90;57.50;;;;;;5127716;28;20334;-58
2022/04/22 03:35:05;;;;;;;16.00;9.55;;;7.90;57.50;;;;;;5127122;28;20027;-59
2022/04/22 03:37:31;;;;;;;15.93;9.15;;;7.90;57.50;;;;;;5130974;28;20034;-57
2022/04/22 03:39:57;;;;;;;14.25;9.07;;;7.80;57.50;;;;;;5116945;28;20090;-58
2022/04/22 03:42:23;;;;;;;14.70;9.30;;;7.80;57.50;;;;;;5116162;28;20038;-59
2022/04/22 03:44:48;;;;;;;14.02;8.30;;;7.80;57.60;;;;;;5122000;28;20063;-59
2022/04/22 03:47:14;;;;;;;12.45;7.97;;;7.70;57.60;;;;;;5111805;28;20019;-58
2022/04/22 03:49:40;;;;;;;17.08;8.77;;;7.70;57.70;;;;;;5120661;27;20051;-57
2022/04/22 03:52:06;;;;;;;12.82;8.68;;;7.70;57.80;;;;;;5118334;27;20027;-59
2022/04/22 03:54:32;;;;;;;14.52;9.40;;;7.60;57.70;;;;;;5118750;27;20045;-57
2022/04/22 03:59:42;;;;;;;12.38;8.98;;;7.60;57.80;;;;;;5124341;27;20030;-57
2022/04/22 04:02:07;;;;;;;16.70;10.10;;;7.50;57.80;;;;;;5125893;27;20099;-57
2022/04/22 04:04:33;;;;;;;17.90;9.93;;;7.50;57.90;;;;;;5129150;27;20048;-56
2022/04/22 04:06:59;;;;;;;15.55;10.52;;;7.50;58.30;;;;;;5116231;27;20020;-58
2022/04/22 04:17:38;;;;;;;15.88;10.25;;;7.40;58.70;;;;;;5115832;27;19923;-59
2022/04/22 04:25:33;;;;;;;17.63;11.30;;;7.30;58.20;;;;;;5121831;27;20107;-57
2022/04/22 04:27:59;;;;;;;18.33;11.75;;;7.30;58.10;;;;;;5110997;27;20063;-57
2022/04/22 04:30:25;;;;;;;18.98;12.10;;;7.30;58.40;;;;;;5113795;27;20036;-58
2022/04/22 04:32:51;;;;;;;21.75;12.85;;;7.30;58.80;;;;;;5122787;27;20062;-57
2022/04/22 04:35:17;;;;;;;17.23;12.15;;;7.30;58.90;;;;;;5122725;27;20473;-57
2022/04/22 04:37:43;;;;;;;18.48;11.88;;;7.30;59.20;;;;;;5117458;27;20024;-58
2022/04/22 04:40:09;;;;;;;18.60;12.10;;;7.30;59.30;;;;;;5110858;27;20024;-57
2022/04/22 04:42:35;;;;;;;16.90;11.00;;;7.30;59.30;;;;;;5119501;28;20030;-59
2022/04/22 04:45:01;;;;;;;18.80;11.88;;;7.30;59.20;;;;;;5119966;28;20477;-57
2022/04/22 04:47:26;;;;;;;20.90;13.75;;;7.30;59.20;;;;;;5117724;27;20024;-58
2022/04/22 04:49:52;;;;;;;20.60;13.00;;;7.40;59.80;;;;;;5123344;27;20043;-58
2022/04/22 04:52:18;;;;;;;22.20;13.77;;;7.40;59.70;;;;;;5128815;27;20019;-58
2022/04/22 04:54:46;;;;;;;18.67;13.07;;;7.40;60.50;;;;;;5112554;27;20023;-58
2022/04/22 04:57:11;;;;;;;20.08;12.57;;;7.40;60.20;;;;;;5122597;27;20019;-59
2022/04/22 04:59:37;;;;;;;21.88;12.98;;;7.50;60.30;;;;;;5126563;27;20068;-58
2022/04/22 05:02:03;;;;;;;22.38;13.45;;;7.50;60.40;;;;;;5126857;27;20035;-57
2022/04/22 05:04:28;;;;;;;21.85;13.27;;;7.60;60.60;;;;;;5116742;27;20505;-57
2022/04/22 05:06:54;;;;;;;21.83;13.48;;;7.60;60.30;;;;;;5120938;27;20031;-58
2022/04/22 05:09:20;;;;;;;23.88;14.40;;;7.70;60.50;;;;;;5121504;27;20043;-58
2022/04/22 05:11:45;;;;;;;23.55;14.23;;;7.80;60.70;;;;;;5125096;27;20023;-58
2022/04/22 05:14:12;;;;;;;22.23;13.80;;;7.90;61.10;;;;;;5122466;27;20055;-58
2022/04/22 05:16:37;;;;;;;21.70;13.90;;;7.90;60.90;;;;;;5120619;27;20042;-57
2022/04/22 05:19:03;;;;;;;21.77;14.27;;;8.00;60.80;;;;;;5121246;27;20028;-58
2022/04/22 05:21:28;;;;;;;24.98;14.25;;;8.10;60.70;;;;;;5122876;27;20027;-57
2022/04/22 05:23:55;;;;;;;22.20;14.10;;;8.20;61.00;;;;;;5112728;27;20032;-58
2022/04/22 05:26:23;;;;;;;20.38;13.57;;;8.30;61.10;;;;;;5129029;27;20030;-58
2022/04/22 05:28:49;;;;;;;19.40;13.75;;;8.40;60.80;;;;;;5126759;27;20030;-57
2022/04/22 05:33:59;;;;;;;22.73;14.07;;;8.60;61.40;;;;;;5124846;27;20066;-57
2022/04/22 05:36:25;;;;;;;29.10;13.10;;;8.70;61.00;;;;;;5124385;27;20027;-58
2022/04/22 05:38:52;;;;;;;24.40;14.65;;;8.80;60.70;;;;;;5122281;27;20031;-56
2022/04/22 05:41:18;;;;;;;20.27;14.00;;;8.90;60.80;;;;;;5122302;27;20023;-57
2022/04/22 05:43:44;;;;;;;20.60;13.98;;;9.00;60.90;;;;;;5116451;27;20026;-58
2022/04/22 05:46:10;;;;;;;21.92;14.85;;;9.10;60.80;;;;;;5121577;28;20019;-58
2022/04/22 05:48:36;;;;;;;21.33;14.40;;;9.20;61.20;;;;;;5113708;27;20221;-57
2022/04/22 05:51:01;;;;;;;27.77;15.65;;;9.30;60.50;;;;;;5116877;27;20036;-58
2022/04/22 05:53:28;;;;;;;20.48;13.77;;;9.40;60.40;;;;;;5119401;27;20083;-57
2022/04/22 05:55:54;;;;;;;20.30;13.73;;;9.50;60.40;;;;;;5124288;27;20019;-56
2022/04/22 05:58:19;;;;;;;20.83;14.48;;;9.60;60.30;;;;;;5124042;27;20031;-58
2022/04/22 06:00:45;;;;;;;22.92;14.07;;;9.70;60.80;;;;;;5122136;27;20024;-58
2022/04/22 06:03:10;;;;;;;24.30;13.85;;;9.80;60.00;;;;;;5128061;27;20029;-58
2022/04/22 06:05:36;;;;;;;20.02;12.98;;;9.90;60.00;;;;;;5122007;27;20032;-58
2022/04/22 06:10:53;;;;;;;21.63;14.00;;;10.00;60.00;;;;;;5123065;27;20054;-58
2022/04/22 06:13:19;;;;;;;20.20;13.93;;;10.20;59.60;;;;;;5119821;27;20099;-58
2022/04/22 06:15:45;;;;;;;19.10;13.45;;;10.30;59.60;;;;;;5112236;27;20019;-57
2022/04/22 06:18:10;;;;;;;18.40;13.02;;;10.40;59.50;;;;;;5122989;27;20277;-58
2022/04/22 06:20:36;;;;;;;23.83;14.57;;;10.50;59.30;;;;;;5125869;27;20046;-57
2022/04/22 06:23:02;;;;;;;22.10;14.05;;;10.60;59.10;;;;;;5123371;27;20081;-58
2022/04/22 06:25:28;;;;;;;18.52;13.35;;;10.70;59.10;;;;;;5136279;27;20393;-59
2022/04/22 06:27:54;;;;;;;19.10;13.23;;;10.90;58.90;;;;;;5135544;27;20035;-58
2022/04/22 06:30:21;;;;;;;21.15;12.98;;;11.00;58.80;;;;;;5113852;28;20044;-58
2022/04/22 06:32:50;;;;;;;20.30;14.00;;;11.10;58.50;;;;;;5122709;27;20020;-58
2022/04/22 06:35:18;;;;;;;22.92;12.73;;;11.20;58.30;;;;;;5125863;27;20051;-58
2022/04/22 06:37:52;;;;;;;19.85;12.82;;;11.30;58.30;;;;;;5127318;27;20037;-57
2022/04/22 06:45:49;;;;;;;20.55;12.65;;;11.60;58.30;;;;;;5119073;28;20999;-58
2022/04/22 06:48:31;;;;;;;17.30;12.32;;;11.80;57.90;;;;;;5119538;27;20035;-59
2022/04/22 06:50:58;;;;;;;17.58;12.27;;;11.90;57.80;;;;;;5116456;27;20035;-58
2022/04/22 06:53:25;;;;;;;15.30;11.57;;;12.00;57.40;;;;;;5112315;28;20024;-57
2022/04/22 06:55:53;;;;;;;16.75;12.23;;;12.10;57.10;;;;;;5114256;27;20039;-59
2022/04/22 06:58:20;;;;;;;16.77;12.00;;;12.20;57.10;;;;;;5115358;28;20018;-59
2022/04/22 07:00:47;;;;;;;15.38;11.90;;;12.30;56.90;;;;;;5124086;27;20060;-58
2022/04/22 07:03:15;;;;;;;14.98;11.23;;;12.50;56.80;;;;;;5124080;28;20023;-58
2022/04/22 07:05:42;;;;;;;19.83;12.43;;;12.60;56.70;;;;;;5116889;28;20098;-59
2022/04/22 07:08:13;;;;;;;21.75;11.68;;;12.80;56.70;;;;;;5118874;28;20022;-58
2022/04/22 07:10:40;;;;;;;15.82;11.27;;;12.90;56.40;;;;;;5123116;28;20521;-58
2022/04/22 07:13:06;;;;;;;17.85;11.77;;;13.10;56.10;;;;;;5119399;28;20035;-58
2022/04/22 07:15:32;;;;;;;13.95;10.60;;;13.20;55.90;;;;;;5116995;28;20099;-59
2022/04/22 07:17:58;;;;;;;14.13;10.45;;;13.40;55.70;;;;;;5123508;28;20019;-58
2022/04/22 07:20:24;;;;;;;15.15;11.40;;;13.60;55.50;;;;;;5120771;28;20034;-58
2022/04/22 07:22:50;;;;;;;13.43;10.82;;;13.70;55.30;;;;;;5130550;27;20033;-58
2022/04/22 07:25:17;;;;;;;18.35;10.80;;;13.90;55.00;;;;;;5074041;27;20030;-57
2022/04/22 07:27:45;;;;;;;15.07;10.15;;;14.00;54.80;;;;;;5127474;27;20030;-58
2022/04/22 07:30:13;;;;;;;13.90;10.60;;;14.10;54.40;;;;;;5127294;27;20632;-59
2022/04/22 07:32:39;;;;;;;14.77;10.02;;;14.20;53.90;;;;;;5113749;27;20027;-58
2022/04/22 07:35:12;;;;;;;15.65;9.57;;;14.40;54.00;;;;;;5119087;27;20062;-58
2022/04/22 07:37:48;;;;;;;12.82;8.90;;;14.50;53.80;;;;;;5127659;27;20476;-58
2022/04/22 07:40:16;;;;;;;9.27;7.82;;;14.70;53.50;;;;;;5121781;27;20028;-59
2022/04/22 07:46:46;;;;;;;12.73;8.50;;;14.80;53.30;;;;;;5116046;28;20097;-59
2022/04/22 07:48:20;;;;;;;9.40;6.78;;;15.10;53.10;;;;;;5130871;27;20471;-58
2022/04/22 07:50:47;;;;;;;9.30;7.35;;;15.40;52.70;;;;;;5119085;27;20035;-59
2022/04/22 07:53:17;;;;;;;8.02;6.40;;;15.50;52.60;;;;;;5125573;27;20011;-59
2022/04/22 07:55:43;;;;;;;9.48;6.65;;;15.70;52.00;;;;;;5118662;27;20019;-57
2022/04/22 07:58:16;;;;;;;10.00;6.75;;;15.80;51.60;;;;;;5124393;27;20049;-58
2022/04/22 08:00:46;;;;;;;9.88;7.25;;;15.90;51.20;;;;;;5122877;27;20016;-59
2022/04/22 08:03:12;;;;;;;7.25;6.40;;;16.00;50.90;;;;;;5121048;27;20031;-59
2022/04/22 08:05:38;;;;;;;9.88;7.10;;;16.10;50.50;;;;;;5123176;27;20031;-58
2022/04/22 08:08:05;;;;;;;7.70;6.63;;;16.20;50.50;;;;;;5120141;27;20031;-58
2022/04/22 08:10:31;;;;;;;7.75;6.55;;;16.40;50.30;;;;;;5114349;27;20057;-58
2022/04/22 08:12:56;;;;;;;10.93;7.22;;;16.50;50.10;;;;;;5128918;27;20031;-59
2022/04/22 08:15:22;;;;;;;8.63;6.82;;;16.60;49.60;;;;;;5124621;27;20023;-58
2022/04/22 08:17:48;;;;;;;14.65;6.68;;;16.60;49.40;;;;;;5118426;27;20070;-57
2022/04/22 08:20:14;;;;;;;7.82;6.47;;;16.70;49.40;;;;;;5123306;27;20106;-58
2022/04/22 08:22:40;;;;;;;8.35;6.80;;;16.80;49.10;;;;;;5119799;27;20019;-57
2022/04/22 08:25:06;;;;;;;8.75;7.05;;;16.80;49.10;;;;;;5121844;27;20114;-58
2022/04/22 08:27:32;;;;;;;8.90;7.00;;;16.90;49.00;;;;;;5121081;27;20030;-58
2022/04/22 08:30:00;;;;;;;9.48;7.15;;;17.00;48.70;;;;;;5120375;27;20031;-59
2022/04/22 08:32:27;;;;;;;11.52;7.25;;;17.10;48.60;;;;;;5121891;27;20024;-58
2022/04/22 08:34:53;;;;;;;12.85;6.80;;;17.20;48.00;;;;;;5124056;27;20178;-58
2022/04/22 08:37:19;;;;;;;11.52;7.15;;;17.30;48.10;;;;;;5123881;27;20047;-59
2022/04/22 08:39:45;;;;;;;12.52;7.38;;;17.40;47.80;;;;;;5126580;27;20038;-58
2022/04/22 08:42:12;;;;;;;9.57;7.18;;;17.40;47.80;;;;;;5117170;27;20031;-59
2022/04/22 08:44:38;;;;;;;12.57;7.93;;;17.40;47.70;;;;;;5117720;27;20120;-58
2022/04/22 08:49:58;;;;;;;9.80;6.78;;;17.60;47.40;;;;;;5116519;27;20123;-59
2022/04/22 08:52:26;;;;;;;12.32;7.35;;;17.70;47.80;;;;;;5125342;27;20031;-58
2022/04/22 08:54:54;;;;;;;11.30;6.18;;;17.80;47.70;;;;;;5119133;27;20024;-58
2022/04/22 08:57:22;;;;;;;8.70;6.85;;;17.80;47.40;;;;;;5118182;27;20076;-58
2022/04/22 08:59:48;;;;;;;13.20;6.97;;;18.00;46.80;;;;;;5116374;27;20042;-58
2022/04/22 09:02:18;;;;;;;15.70;6.88;;;18.00;47.00;;;;;;5117627;27;20025;-58
2022/04/22 09:04:45;;;;;;;9.35;6.63;;;18.20;46.60;;;;;;5115676;27;20027;-58
2022/04/22 09:07:13;;;;;;;9.10;6.68;;;18.20;46.50;;;;;;5120585;27;20036;-58
2022/04/22 09:09:40;;;;;;;8.48;6.88;;;18.40;46.30;;;;;;5115036;27;20051;-58
2022/04/22 09:12:11;;;;;;;8.65;6.88;;;18.50;46.50;;;;;;5121329;27;20031;-58
2022/04/22 09:14:45;;;;;;;8.23;6.90;;;18.50;45.80;;;;;;5113039;28;20024;-59
2022/04/22 09:17:15;;;;;;;8.40;6.87;;;18.60;45.80;;;;;;5125908;27;20016;-59
2022/04/22 09:19:44;;;;;;;8.68;6.32;;;18.70;45.10;;;;;;5117380;27;20062;-58
2022/04/22 09:22:10;;;;;;;7.50;6.68;;;18.70;45.90;;;;;;5130502;27;20015;-59
2022/04/22 09:24:50;;;;;;;8.52;6.60;;;18.80;45.80;;;;;;5121291;27;20022;-58
2022/04/22 09:27:15;;;;;;;7.63;6.18;;;18.90;45.60;;;;;;5113971;28;20051;-58
2022/04/22 09:29:41;;;;;;;9.25;6.47;;;19.00;45.50;;;;;;5124487;27;20039;-59
2022/04/22 09:32:10;;;;;;;13.55;6.88;;;19.10;45.50;;;;;;5112393;28;20023;-58
2022/04/22 09:34:39;;;;;;;11.20;5.75;;;19.20;45.00;;;;;;5124189;27;20023;-59
2022/04/22 09:42:55;;;;;;;9.98;6.85;;;19.50;44.00;;;;;;5119240;27;20081;-58
2022/04/22 09:45:33;;;;;;;7.30;5.95;;;19.60;44.20;;;;;;5119316;27;20347;-58
2022/04/22 09:47:59;;;;;;;9.35;6.10;;;19.70;44.50;;;;;;5117850;27;20143;-58
2022/04/22 09:50:41;;;;;;;10.98;6.63;;;19.80;44.20;;;;;;5123647;27;20063;-59
2022/04/22 09:53:07;;;;;;;8.00;6.35;;;19.90;43.40;;;;;;5116147;28;20513;-59
2022/04/22 09:55:54;;;;;;;8.90;6.35;;;20.00;44.00;;;;;;5118456;28;20030;-59
2022/04/22 09:58:27;;;;;;;6.68;5.85;;;20.10;43.90;;;;;;5123429;27;20441;-59
2022/04/22 10:00:58;;;;;;;7.57;5.75;;;20.20;42.80;;;;;;5123789;27;20042;-58
2022/04/22 10:03:27;;;;;;;9.50;6.60;;;20.30;43.90;;;;;;5125446;27;20031;-58
2022/04/22 10:05:53;;;;;;;11.43;6.43;;;20.40;43.70;;;;;;5120317;27;20016;-58
2022/04/22 10:08:20;;;;;;;9.93;6.35;;;20.40;43.20;;;;;;5119371;28;20031;-59
2022/04/22 10:10:47;;;;;;;9.93;6.10;;;20.50;42.40;;;;;;5115352;27;20031;-59
2022/04/22 10:13:17;;;;;;;8.93;6.05;;;20.60;42.60;;;;;;5123576;27;20466;-60
2022/04/22 10:15:45;;;;;;;9.73;6.53;;;20.60;42.50;;;;;;5117093;27;20023;-59
2022/04/22 10:18:13;;;;;;;7.18;6.22;;;20.70;41.80;;;;;;5120042;27;20019;-58
2022/04/22 10:20:40;;;;;;;8.02;6.60;;;20.70;41.20;;;;;;5122821;27;20020;-58
2022/04/22 10:23:06;;;;;;;8.40;6.50;;;20.80;41.30;;;;;;5126070;27;20016;-59
2022/04/22 10:25:33;;;;;;;8.07;6.18;;;20.80;41.10;;;;;;5111913;27;20054;-58
2022/04/22 10:28:05;;;;;;;7.90;5.97;;;20.90;40.90;;;;;;5122114;27;20020;-58
2022/04/22 10:30:32;;;;;;;7.53;6.72;;;20.90;41.00;;;;;;5126391;27;20026;-59
2022/04/22 10:32:58;;;;;;;7.15;5.93;;;21.00;41.80;;;;;;5119200;27;20032;-59
2022/04/22 10:35:24;;;;;;;6.55;5.55;;;21.10;40.90;;;;;;5118845;27;20392;-60
2022/04/22 10:37:52;;;;;;;8.73;5.65;;;21.10;40.80;;;;;;5121862;27;20023;-58
2022/04/22 10:40:25;;;;;;;8.75;5.53;;;21.20;40.90;;;;;;5125375;27;20027;-59
2022/04/22 10:42:52;;;;;;;14.88;5.72;;;21.30;40.70;;;;;;5117571;27;20028;-59
2022/04/22 10:48:25;;;;;;;6.95;5.25;;;21.50;40.30;;;;;;5124685;27;20088;-58
2022/04/22 10:51:02;;;;;;;6.97;5.57;;;21.60;40.20;;;;;;5120055;27;20536;-58
2022/04/22 10:53:39;;;;;;;7.72;5.75;;;21.80;40.00;;;;;;5114208;28;20358;-59
2022/04/22 10:56:27;;;;;;;8.70;5.65;;;21.90;39.50;;;;;;5114542;28;20026;-60
2022/04/22 10:59:20;;;;;;;7.25;5.63;;;22.00;40.00;;;;;;5116747;27;20031;-59
2022/04/22 11:01:47;;;;;;;9.00;6.15;;;22.10;39.70;;;;;;5114351;28;20015;-58
2022/04/22 11:04:20;;;;;;;9.18;6.15;;;22.20;38.70;;;;;;5120393;27;20057;-59
2022/04/22 11:06:46;;;;;;;6.90;5.20;;;22.20;38.60;;;;;;5116227;28;20054;-59
2022/04/22 11:09:27;;;;;;;7.05;5.47;;;22.30;38.90;;;;;;5122740;28;20031;-58
2022/04/22 11:11:54;;;;;;;6.47;5.43;;;22.30;38.40;;;;;;5115675;28;20034;-58
2022/04/22 11:14:32;;;;;;;7.68;5.50;;;22.40;39.60;;;;;;5112513;28;20024;-59
2022/04/22 11:17:33;;;;;;;8.20;5.80;;;22.40;39.60;;;;;;5113950;28;20063;-58
2022/04/22 11:19:59;;;;;;;9.48;4.90;;;22.60;38.30;;;;;;5117049;28;20050;-58
2022/04/22 11:22:59;;;;;;;7.03;5.05;;;22.70;38.30;;;;;;5123050;28;20020;-59
2022/04/22 11:25:26;;;;;;;7.65;5.20;;;22.90;36.70;;;;;;5109726;28;20478;-59
2022/04/22 11:27:55;;;;;;;5.68;5.05;;;22.90;37.90;;;;;;5114154;28;20028;-58
2022/04/22 11:30:22;;;;;;;7.50;5.10;;;23.00;37.20;;;;;;5120272;28;20036;-58
2022/04/22 11:32:51;;;;;;;10.25;5.30;;;23.00;36.90;;;;;;5128073;28;20083;-58
2022/04/22 11:35:20;;;;;;;6.43;5.40;;;23.20;37.10;;;;;;5114742;28;20027;-58
2022/04/22 11:38:00;;;;;;;9.93;5.68;;;23.20;37.50;;;;;;5120432;28;20027;-58
2022/04/22 11:40:26;;;;;;;9.50;5.43;;;23.30;35.60;;;;;;5117447;28;20026;-58
2022/04/22 11:42:54;;;;;;;9.65;5.53;;;23.30;35.50;;;;;;5125401;28;20032;-58
2022/04/22 11:45:20;;;;;;;7.53;5.15;;;23.20;35.30;;;;;;5121589;28;20027;-60
2022/04/22 11:47:46;;;;;;;8.35;5.47;;;23.20;36.20;;;;;;5117548;28;20023;-59
2022/04/22 11:50:20;;;;;;;7.28;5.28;;;23.00;36.80;;;;;;5126517;28;20095;-59
2022/04/22 11:52:54;;;;;;;8.38;5.18;;;23.00;36.00;;;;;;5116212;28;20016;-59
2022/04/22 11:55:20;;;;;;;7.22;5.50;;;23.00;35.60;;;;;;5116069;28;20020;-57
2022/04/22 11:57:46;;;;;;;23.55;5.38;;;22.90;35.80;;;;;;5118651;28;20370;-58
2022/04/22 12:05:48;;;;;;;7.05;4.72;;;23.10;37.10;;;;;;5117634;28;20037;-58
2022/04/22 12:08:15;;;;;;;6.95;4.88;;;23.20;36.70;;;;;;5123882;28;20234;-60
2022/04/22 12:10:45;;;;;;;7.00;5.25;;;23.30;37.00;;;;;;5117832;27;20028;-59
2022/04/22 12:13:13;;;;;;;7.82;4.55;;;23.40;36.50;;;;;;5117197;27;20657;-59
2022/04/22 12:15:42;;;;;;;10.32;5.57;;;23.60;36.60;;;;;;5118690;28;20023;-59
2022/04/22 12:18:08;;;;;;;9.60;6.35;;;23.80;36.30;;;;;;5114301;28;20394;-59
2022/04/22 12:20:34;;;;;;;8.27;5.35;;;23.90;35.40;;;;;;5121728;27;20022;-59
2022/04/22 12:23:00;;;;;;;8.50;5.50;;;24.00;35.20;;;;;;5119253;27;20521;-59
2022/04/22 12:25:25;;;;;;;9.48;5.00;;;24.10;34.90;;;;;;5126952;27;20020;-59
2022/04/22 12:28:13;;;;;;;5.45;4.40;;;24.00;34.70;;;;;;5121605;27;20037;-59
2022/04/22 12:30:40;;;;;;;7.47;4.82;;;24.00;35.40;;;;;;5116039;27;20059;-60
2022/04/22 12:33:08;;;;;;;5.57;4.95;;;24.10;35.10;;;;;;5115730;27;20032;-59
2022/04/22 12:35:34;;;;;;;6.43;5.22;;;24.20;34.70;;;;;;5116671;27;20526;-59
2022/04/22 12:38:05;;;;;;;5.90;5.03;;;24.20;34.60;;;;;;5125753;27;20062;-59
2022/04/22 12:40:47;;;;;;;5.05;4.53;;;24.20;33.80;;;;;;5129587;27;20059;-59
2022/04/22 12:43:23;;;;;;;7.10;5.10;;;24.30;34.10;;;;;;5124267;27;20062;-59
2022/04/22 12:54:11;;;;;;;5.57;4.55;;;24.70;34.50;;;;;;5118839;27;20039;-59
2022/04/22 12:56:37;;;;;;;6.45;5.80;;;24.90;34.20;;;;;;5117526;27;20142;-59
2022/04/22 12:59:04;;;;;;;6.07;4.95;;;25.00;33.70;;;;;;5128867;27;20031;-59
2022/04/22 13:01:36;;;;;;;11.18;5.05;;;25.10;33.50;;;;;;5124158;27;20104;-61
2022/04/22 13:04:04;;;;;;;8.52;5.18;;;25.30;34.20;;;;;;5115457;27;20046;-60
2022/04/22 13:06:50;;;;;;;9.13;4.68;;;25.40;33.80;;;;;;5117441;27;20458;-59
2022/04/22 13:09:18;;;;;;;8.43;5.25;;;25.60;33.50;;;;;;5117300;27;20477;-60
2022/04/22 13:11:43;;;;;;;7.28;5.07;;;25.70;32.60;;;;;;5122193;27;20023;-60
2022/04/22 13:14:11;;;;;;;7.88;5.05;;;25.80;32.60;;;;;;5124060;27;20079;-59
2022/04/22 13:16:37;;;;;;;7.60;5.50;;;25.80;31.60;;;;;;5118262;27;20023;-60
2022/04/22 13:19:03;;;;;;;10.98;8.77;;;25.80;31.30;;;;;;5121162;27;20059;-60
2022/04/22 13:21:29;;;;;;;8.25;5.95;;;25.80;31.90;;;;;;5127065;27;20381;-59
2022/04/22 13:23:55;;;;;;;8.30;5.93;;;25.80;31.90;;;;;;5118635;27;20028;-59
2022/04/22 13:26:22;;;;;;;6.45;5.07;;;25.70;31.40;;;;;;5120921;27;20054;-59
2022/04/22 13:28:48;;;;;;;7.22;5.45;;;25.70;31.90;;;;;;5037634;27;20030;-60
2022/04/22 13:31:14;;;;;;;8.48;5.28;;;25.80;31.50;;;;;;5122532;27;20032;-60
2022/04/22 13:33:40;;;;;;;18.27;14.63;;;25.80;31.50;;;;;;5125925;27;20044;-60
2022/04/22 13:36:09;;;;;;;10.27;8.38;;;25.90;31.50;;;;;;5125937;27;20015;-61
2022/04/22 13:38:36;;;;;;;7.63;5.80;;;26.00;31.30;;;;;;5117381;27;20051;-59
2022/04/22 13:41:01;;;;;;;6.88;5.13;;;26.00;31.20;;;;;;5127076;27;20449;-60
2022/04/22 13:43:31;;;;;;;6.70;5.97;;;26.00;30.80;;;;;;5127116;27;20066;-60
2022/04/22 13:54:11;;;;;;;18.75;13.07;;;26.00;31.70;;;;;;5113229;28;20092;-60
2022/04/22 13:56:36;;;;;;;8.20;6.15;;;26.20;31.00;;;;;;5108793;27;20113;-59
2022/04/22 13:59:02;;;;;;;7.30;5.25;;;26.30;30.60;;;;;;5121397;27;20028;-60
2022/04/22 14:01:28;;;;;;;5.55;4.55;;;26.30;30.30;;;;;;5126686;27;20046;-59
2022/04/22 14:03:54;;;;;;;17.70;12.38;;;26.40;30.70;;;;;;5122599;27;20081;-60